createdAt,value
2018-12-01T00:00:21.601Z,19.47
2018-12-01T00:05:20.188Z,21.60
2018-12-01T00:10:18.838Z,20.70
2018-12-01T00:15:23.726Z,19.90
2018-12-01T00:20:24.611Z,18.23
2018-12-01T00:25:23.238Z,22.40
2018-12-01T00:30:24.641Z,21.63
2018-12-01T00:35:23.290Z,17.97
2018-12-01T00:40:22.251Z,21.10
2018-12-01T00:45:21.921Z,19.40
2018-12-01T00:50:21.840Z,21.20
2018-12-01T00:55:20.806Z,19.50
2018-12-01T01:00:23.097Z,21.30
2018-12-01T01:05:24.523Z,19.47
2018-12-01T01:10:25.065Z,19.97
2018-12-01T01:15:23.662Z,18.97
2018-12-01T01:20:23.324Z,20.40
2018-12-01T01:25:21.998Z,19.00
2018-12-01T01:30:21.412Z,20.10
2018-12-01T01:35:20.027Z,19.87
2018-12-01T01:40:18.718Z,18.50
2018-12-01T01:45:18.322Z,19.10
2018-12-01T01:50:18.201Z,18.73
2018-12-01T01:55:16.841Z,19.90
2018-12-01T02:00:19.531Z,18.27
2018-12-01T02:05:20.218Z,18.03
2018-12-01T02:10:19.870Z,20.63
2018-12-01T02:15:18.506Z,20.57
2018-12-01T02:20:17.837Z,19.20
2018-12-01T02:25:17.236Z,20.90
2018-12-01T02:30:18.779Z,18.07
2018-12-01T02:35:19.625Z,20.67
2018-12-01T02:40:18.291Z,20.87
2018-12-01T02:45:28.807Z,22.00
2018-12-01T02:50:28.100Z,20.33
2018-12-01T02:55:26.815Z,21.70
2018-12-01T03:00:25.500Z,22.00
2018-12-01T03:05:24.414Z,21.23
2018-12-01T03:10:23.148Z,21.97
2018-12-01T03:15:21.801Z,22.80
2018-12-01T03:20:20.501Z,23.87
2018-12-01T03:25:23.829Z,21.67
2018-12-01T03:30:25.357Z,21.63
2018-12-01T03:35:24.684Z,25.60
2018-12-01T03:40:23.301Z,24.00
2018-12-01T03:45:22.755Z,23.10
2018-12-01T03:50:25.229Z,24.10
2018-12-01T03:55:26.198Z,23.97
2018-12-01T04:00:29.694Z,23.60
2018-12-01T04:05:28.376Z,23.87
2018-12-01T04:10:26.984Z,23.17
2018-12-01T04:15:25.793Z,22.17
2018-12-01T04:20:24.498Z,24.00
2018-12-01T04:25:23.150Z,21.03
2018-12-01T04:30:22.934Z,22.77
2018-12-01T04:35:22.458Z,22.23
2018-12-01T04:40:21.160Z,23.70
2018-12-01T04:45:19.764Z,22.07
2018-12-01T04:50:18.748Z,23.40
2018-12-01T04:55:18.411Z,24.03
2018-12-01T05:00:18.034Z,22.00
2018-12-01T05:05:20.626Z,22.87
2018-12-01T05:10:20.441Z,23.30
2018-12-01T05:15:19.471Z,24.77
2018-12-01T05:20:23.074Z,22.87
2018-12-01T05:25:21.696Z,21.80
2018-12-01T05:30:20.342Z,22.40
2018-12-01T05:35:20.311Z,24.93
2018-12-01T05:40:19.065Z,24.60
2018-12-01T05:45:19.542Z,24.97
2018-12-01T05:50:22.961Z,23.90
2018-12-01T05:55:21.682Z,23.70
2018-12-01T06:00:20.458Z,25.97
2018-12-01T06:05:19.165Z,23.90
2018-12-01T06:10:21.046Z,22.97
2018-12-01T06:15:20.260Z,23.60
2018-12-01T06:20:20.071Z,24.30
2018-12-01T06:25:20.833Z,23.87
2018-12-01T06:30:19.964Z,25.13
2018-12-01T06:35:18.608Z,20.40
2018-12-01T06:40:19.182Z,24.80
2018-12-01T06:45:18.154Z,23.77
2018-12-01T06:50:20.721Z,21.87
2018-12-01T06:55:19.416Z,26.17
2018-12-01T07:00:20.193Z,23.57
2018-12-01T07:05:18.933Z,22.97
2018-12-01T07:10:18.596Z,23.93
2018-12-01T07:15:20.044Z,20.40
2018-12-01T07:20:18.685Z,22.63
2018-12-01T07:25:17.328Z,23.43
2018-12-01T07:30:16.021Z,22.10
2018-12-01T07:35:14.653Z,23.53
2018-12-01T07:40:14.788Z,24.90
2018-12-01T07:45:14.399Z,19.90
2018-12-01T07:50:15.070Z,25.63
2018-12-01T07:55:13.713Z,22.37
2018-12-01T08:00:13.364Z,21.87
2018-12-01T08:05:12.203Z,22.93
2018-12-01T08:10:12.710Z,23.77
2018-12-01T08:15:12.550Z,24.07
2018-12-01T08:20:12.611Z,24.50
2018-12-01T08:25:13.532Z,23.67
2018-12-01T08:30:15.716Z,23.13
2018-12-01T08:35:15.196Z,20.37
2018-12-01T08:40:19.987Z,22.10
2018-12-01T08:45:19.112Z,22.30
2018-12-01T08:50:20.900Z,21.97
2018-12-01T08:55:20.602Z,21.47
2018-12-01T09:00:22.470Z,21.57
2018-12-01T09:05:21.069Z,21.00
2018-12-01T09:10:19.696Z,19.90
2018-12-01T09:15:18.378Z,22.10
2018-12-01T09:20:17.021Z,22.27
2018-12-01T09:25:16.814Z,20.90
2018-12-01T09:30:20.635Z,21.00
2018-12-01T09:35:19.341Z,19.17
2018-12-01T09:40:20.016Z,21.50
2018-12-01T09:45:20.821Z,21.53
2018-12-01T09:50:21.011Z,19.17
2018-12-01T09:55:22.706Z,18.10
2018-12-01T10:00:31.578Z,19.20
2018-12-01T10:05:30.645Z,18.90
2018-12-01T10:10:29.373Z,18.40
2018-12-01T10:15:30.278Z,16.83
2018-12-01T10:20:32.227Z,18.60
2018-12-01T10:25:30.821Z,17.87
2018-12-01T10:30:29.517Z,18.80
2018-12-01T10:35:28.140Z,19.10
2018-12-01T10:40:26.825Z,16.90
2018-12-01T10:45:25.513Z,20.20
2018-12-01T10:50:24.332Z,19.53
2018-12-01T10:55:28.901Z,17.93
2018-12-01T11:00:33.093Z,18.57
2018-12-01T11:05:32.220Z,18.20
2018-12-01T11:10:30.949Z,18.63
2018-12-01T11:15:29.530Z,17.83
2018-12-01T11:20:28.207Z,17.73
2018-12-01T11:25:26.878Z,18.50
2018-12-01T11:30:25.513Z,18.10
2018-12-01T11:35:24.132Z,16.80
2018-12-01T11:40:22.809Z,17.10
2018-12-01T11:45:21.485Z,18.33
2018-12-01T11:50:20.427Z,18.53
2018-12-01T11:55:21.083Z,17.43
2018-12-01T12:00:20.814Z,16.30
2018-12-01T12:05:19.499Z,17.57
2018-12-01T12:10:18.134Z,16.80
2018-12-01T12:15:16.965Z,17.80
2018-12-01T12:20:15.677Z,17.47
2018-12-01T12:25:14.323Z,17.50
2018-12-01T12:30:14.052Z,17.87
2018-12-01T12:35:14.952Z,16.67
2018-12-01T12:40:15.959Z,17.30
2018-12-01T12:45:14.829Z,16.90
2018-12-01T12:50:17.239Z,16.40
2018-12-01T12:55:19.740Z,17.80
2018-12-01T13:00:19.394Z,17.53
2018-12-01T13:05:20.144Z,17.90
2018-12-01T13:10:20.652Z,18.80
2018-12-01T13:15:19.287Z,17.30
2018-12-01T13:20:18.881Z,17.23
2018-12-01T13:25:17.643Z,17.73
2018-12-01T13:30:17.814Z,16.93
2018-12-01T13:35:16.492Z,17.60
2018-12-01T13:40:15.853Z,16.43
2018-12-01T13:45:17.111Z,17.47
2018-12-01T13:50:19.506Z,19.27
2018-12-01T13:55:18.184Z,18.23
2018-12-01T14:00:18.954Z,17.40
2018-12-01T14:05:17.585Z,18.40
2018-12-01T14:10:18.401Z,18.27
2018-12-01T14:15:18.042Z,17.50
2018-12-01T14:20:17.126Z,14.97
2018-12-01T14:25:16.752Z,16.90
2018-12-01T14:30:16.271Z,16.17
2018-12-01T14:35:21.182Z,16.30
2018-12-01T14:40:19.833Z,14.80
2018-12-01T14:45:18.663Z,18.10
2018-12-01T14:50:17.330Z,15.80
2018-12-01T14:55:16.837Z,15.90
2018-12-01T15:00:19.655Z,17.80
2018-12-01T15:05:18.317Z,16.50
2018-12-01T15:10:18.992Z,17.30
2018-12-01T15:15:19.064Z,17.00
2018-12-01T15:20:18.532Z,16.70
2018-12-01T15:25:19.782Z,16.40
2018-12-01T15:30:21.183Z,15.97
2018-12-01T15:35:19.792Z,14.57
2018-12-01T15:40:19.090Z,17.30
2018-12-01T15:45:19.028Z,15.57
2018-12-01T15:50:19.481Z,15.90
2018-12-01T15:55:18.178Z,16.20
2018-12-01T16:00:18.813Z,16.00
2018-12-01T16:05:18.646Z,16.17
2018-12-01T16:10:19.366Z,17.17
2018-12-01T16:15:23.295Z,15.27
2018-12-01T16:20:21.917Z,16.53
2018-12-01T16:25:21.754Z,14.00
2018-12-01T16:30:26.681Z,15.20
2018-12-01T16:35:25.334Z,16.13
2018-12-01T16:40:25.858Z,15.30
2018-12-01T16:45:24.495Z,14.47
2018-12-01T16:50:23.246Z,14.37
2018-12-01T16:55:21.846Z,14.27
2018-12-01T17:00:20.880Z,13.83
2018-12-01T17:05:20.297Z,13.10
2018-12-01T17:10:20.218Z,13.70
2018-12-01T17:15:19.939Z,12.80
2018-12-01T17:20:19.183Z,14.30
2018-12-01T17:25:17.846Z,14.60
2018-12-01T17:30:17.670Z,13.50
2018-12-01T17:35:18.530Z,14.87
2018-12-01T17:40:21.269Z,14.70
2018-12-01T17:45:19.923Z,13.53
2018-12-01T17:50:18.558Z,12.13
2018-12-01T17:55:17.400Z,12.20
2018-12-01T18:01:24.678Z,12.23
2018-12-01T18:06:23.329Z,11.30
2018-12-01T18:11:22.045Z,10.40
2018-12-01T18:16:20.687Z,11.93
2018-12-01T18:21:19.426Z,10.97
2018-12-01T18:26:18.069Z,11.43
2018-12-01T18:31:19.086Z,12.43
2018-12-01T18:36:17.744Z,10.30
2018-12-01T18:41:17.333Z,9.87
2018-12-01T18:46:16.668Z,10.27
2018-12-01T18:51:15.529Z,10.13
2018-12-01T18:56:14.157Z,10.70
2018-12-01T19:01:13.787Z,8.60
2018-12-01T19:06:12.482Z,9.87
2018-12-01T19:11:11.288Z,9.40
2018-12-01T19:16:09.893Z,9.30
2018-12-01T19:21:08.915Z,8.90
2018-12-01T19:26:08.549Z,9.30
2018-12-01T19:31:08.662Z,8.90
2018-12-01T19:36:06.198Z,8.80
2018-12-01T19:41:04.950Z,8.60
2018-12-01T19:46:03.587Z,7.53
2018-12-01T19:51:02.309Z,7.60
2018-12-01T19:56:00.936Z,8.13
2018-12-01T20:00:59.614Z,9.87
2018-12-01T20:05:58.275Z,8.23
2018-12-01T20:11:00.636Z,9.20
2018-12-01T20:16:02.489Z,8.13
2018-12-01T20:21:01.185Z,7.37
2018-12-01T20:25:59.805Z,8.30
2018-12-01T20:30:58.571Z,8.80
2018-12-01T20:36:01.110Z,8.70
2018-12-01T20:40:59.955Z,8.50
2018-12-01T20:45:58.581Z,7.87
2018-12-01T20:50:57.196Z,8.20
2018-12-01T20:55:57.548Z,9.30
2018-12-01T21:00:56.293Z,9.60
2018-12-01T21:05:54.914Z,8.47
2018-12-01T21:10:57.645Z,7.67
2018-12-01T21:15:56.287Z,8.60
2018-12-01T21:20:55.035Z,9.80
2018-12-01T21:25:53.658Z,8.10
2018-12-01T21:30:52.563Z,7.70
2018-12-01T21:35:51.169Z,8.63
2018-12-01T21:40:49.902Z,7.93
2018-12-01T21:45:48.642Z,7.13
2018-12-01T21:50:47.865Z,7.60
2018-12-01T21:55:46.482Z,7.30
2018-12-01T22:00:47.745Z,8.00
2018-12-01T22:05:48.379Z,6.83
2018-12-01T22:10:55.231Z,8.70
2018-12-01T22:15:53.991Z,8.13
2018-12-01T22:20:52.627Z,8.23
2018-12-01T22:25:51.297Z,8.40
2018-12-01T22:30:51.857Z,8.00
2018-12-01T22:35:50.577Z,7.93
2018-12-01T22:40:49.279Z,8.43
2018-12-01T22:45:47.939Z,8.60
2018-12-01T22:50:48.244Z,8.13
2018-12-01T22:55:47.113Z,7.90
2018-12-01T23:00:50.232Z,9.70
2018-12-01T23:05:48.851Z,8.40
2018-12-01T23:10:47.533Z,8.10
2018-12-01T23:15:46.293Z,9.13
2018-12-01T23:20:46.018Z,8.50
2018-12-01T23:25:45.179Z,8.70
2018-12-01T23:30:46.606Z,8.20
2018-12-01T23:35:45.210Z,10.33
2018-12-01T23:40:43.943Z,8.97
2018-12-01T23:45:43.494Z,7.97
2018-12-01T23:50:45.886Z,8.70
2018-12-01T23:55:44.529Z,8.80
